Tanger, Morocco

1:42 AM WET on March 03, 2015 (GMT +0000)
Ibn Batouta | Change Station
CLOSE
Current Station
Airport
Location: Tanger,
Elevation: 69 ft
Nearby Weather Stations

Elev 69 ft 35.73 °N, 5.91 °W | Updated 12 minutes ago

Scattered Clouds
Scattered Clouds
50 °F
Feels Like 50 °F
N
6
Wind Variable Wind from ESE

Today
High -- | Low -- °F
--% Chance of Precip.
Yesterday
High -- | Low -- °F
Precip. -- in
6:51 AM 6:20 PM
Waxing Gibbous, 94% visible
Pressure 30.27 in
Visibility 1.9 miles
Clouds Few 1000 ft
Scattered Clouds 1600 ft
Dew Point 46 °F
Humidity 87%
Rainfall 0.00 in
Snow Depth Not available.
UV 0 out of 12
Pollen Not available.
Air Quality Not available.
Flu Activity Not available.
METAR GMTT 030130Z 11005KT 3000 BR FEW010 SCT016 10/08 Q1025 NOSIG

More Conditions Fewer Conditions

Pressure 30.27 in
Visibility 1.9 miles
Clouds Few 1000 ft
Scattered Clouds 1600 ft
Dew Point 46 °F
Humidity 87%
Rainfall 0.00 in
Snow Depth Not available.
UV 0 out of 12
Pollen Not available.
Air Quality Not available.
Flu Activity Not available.
METAR GMTT 030130Z 11005KT 3000 BR FEW010 SCT016 10/08 Q1025 NOSIG

More Conditions Fewer Conditions

10-Day Weather Forecast

Almanac

Astronomy

Mar. 03, 2015 Rise Set
Actual Time
Civil Twilight
Nautical Twilight
Astronomical Twilight
Moon
Length of Visible Light
Length of Day
Tomorrow will be .
, % of the Moon is Illuminated

Today's Extremes

Country Highs Country Lows

Community

WunderPhotos

Upload Photos

1,802,034 photos uploaded!

WunderBlogs® & News

Nearby

Air Quality

  Air Quality AQ Index Pollutant
Not available.

Snow Depth

Station Depth Elevation

Earthquake Activity

City Distance Mag. Time & Date
Minimum magnitude displayed is 2.5.

Coastal Water Temperatures

Place Temperature

Nearby Weather Stations